sensor_id;sensor_type;location;lat;lon;timestamp;P1;durP1;ratioP1;P2;durP2;ratioP2
69244;SDS011;56357;52.304;4.870;2024-02-21T00:01:14;8.73;;;0.90;;
69244;SDS011;56357;52.304;4.870;2024-02-21T00:03:42;5.95;;;1.00;;
69244;SDS011;56357;52.304;4.870;2024-02-21T00:06:08;6.45;;;1.02;;
69244;SDS011;56357;52.304;4.870;2024-02-21T00:08:34;6.35;;;1.20;;
69244;SDS011;56357;52.304;4.870;2024-02-21T00:11:01;4.28;;;0.98;;
69244;SDS011;56357;52.304;4.870;2024-02-21T00:13:27;8.33;;;1.03;;
69244;SDS011;56357;52.304;4.870;2024-02-21T00:15:54;4.93;;;1.00;;
69244;SDS011;56357;52.304;4.870;2024-02-21T00:18:20;8.63;;;1.30;;
69244;SDS011;56357;52.304;4.870;2024-02-21T00:20:47;7.28;;;0.80;;
69244;SDS011;56357;52.304;4.870;2024-02-21T00:23:13;6.00;;;1.10;;
69244;SDS011;56357;52.304;4.870;2024-02-21T00:25:40;9.43;;;1.30;;
69244;SDS011;56357;52.304;4.870;2024-02-21T00:28:06;9.60;;;0.82;;
69244;SDS011;56357;52.304;4.870;2024-02-21T00:30:32;6.82;;;0.98;;
69244;SDS011;56357;52.304;4.870;2024-02-21T00:32:59;5.57;;;0.93;;
69244;SDS011;56357;52.304;4.870;2024-02-21T00:35:25;5.35;;;0.88;;
69244;SDS011;56357;52.304;4.870;2024-02-21T00:37:51;7.20;;;0.80;;
69244;SDS011;56357;52.304;4.870;2024-02-21T00:40:18;10.43;;;1.23;;
69244;SDS011;56357;52.304;4.870;2024-02-21T00:42:45;5.72;;;0.82;;
69244;SDS011;56357;52.304;4.870;2024-02-21T00:45:12;6.95;;;1.13;;
69244;SDS011;56357;52.304;4.870;2024-02-21T00:47:38;7.00;;;0.90;;
69244;SDS011;56357;52.304;4.870;2024-02-21T00:50:05;3.87;;;0.60;;
69244;SDS011;56357;52.304;4.870;2024-02-21T00:52:32;7.20;;;0.80;;
69244;SDS011;56357;52.304;4.870;2024-02-21T00:54:59;5.07;;;0.82;;
69244;SDS011;56357;52.304;4.870;2024-02-21T00:57:25;7.28;;;1.08;;
69244;SDS011;56357;52.304;4.870;2024-02-21T00:59:52;10.10;;;1.40;;
69244;SDS011;56357;52.304;4.870;2024-02-21T01:02:18;6.97;;;0.97;;
69244;SDS011;56357;52.304;4.870;2024-02-21T01:04:45;9.75;;;1.50;;
69244;SDS011;56357;52.304;4.870;2024-02-21T01:07:11;7.85;;;0.75;;
69244;SDS011;56357;52.304;4.870;2024-02-21T01:09:38;6.35;;;1.00;;
69244;SDS011;56357;52.304;4.870;2024-02-21T01:12:04;6.60;;;1.00;;
69244;SDS011;56357;52.304;4.870;2024-02-21T01:14:31;5.10;;;0.80;;
69244;SDS011;56357;52.304;4.870;2024-02-21T01:16:57;5.95;;;1.08;;
69244;SDS011;56357;52.304;4.870;2024-02-21T01:19:24;10.82;;;1.20;;
69244;SDS011;56357;52.304;4.870;2024-02-21T01:21:50;6.80;;;0.70;;
69244;SDS011;56357;52.304;4.870;2024-02-21T01:24:16;6.40;;;0.70;;
69244;SDS011;56357;52.304;4.870;2024-02-21T01:26:43;7.10;;;0.90;;
69244;SDS011;56357;52.304;4.870;2024-02-21T01:29:09;8.63;;;1.20;;
69244;SDS011;56357;52.304;4.870;2024-02-21T01:31:35;10.30;;;1.13;;
69244;SDS011;56357;52.304;4.870;2024-02-21T01:34:02;5.22;;;0.68;;
69244;SDS011;56357;52.304;4.870;2024-02-21T01:36:28;6.95;;;1.05;;
69244;SDS011;56357;52.304;4.870;2024-02-21T01:38:55;7.13;;;0.77;;
69244;SDS011;56357;52.304;4.870;2024-02-21T01:41:21;7.05;;;0.90;;
69244;SDS011;56357;52.304;4.870;2024-02-21T01:43:47;5.72;;;0.90;;
69244;SDS011;56357;52.304;4.870;2024-02-21T01:46:14;5.68;;;0.65;;
69244;SDS011;56357;52.304;4.870;2024-02-21T01:48:40;7.10;;;0.93;;
69244;SDS011;56357;52.304;4.870;2024-02-21T01:51:07;6.13;;;1.00;;
69244;SDS011;56357;52.304;4.870;2024-02-21T01:53:35;4.43;;;0.70;;
69244;SDS011;56357;52.304;4.870;2024-02-21T01:56:05;8.10;;;1.45;;
69244;SDS011;56357;52.304;4.870;2024-02-21T01:58:33;6.43;;;1.10;;
69244;SDS011;56357;52.304;4.870;2024-02-21T02:01:03;5.78;;;1.10;;
69244;SDS011;56357;52.304;4.870;2024-02-21T02:03:29;7.93;;;1.00;;
69244;SDS011;56357;52.304;4.870;2024-02-21T02:05:56;8.43;;;1.02;;
69244;SDS011;56357;52.304;4.870;2024-02-21T02:08:22;9.75;;;0.98;;
69244;SDS011;56357;52.304;4.870;2024-02-21T02:10:49;5.50;;;0.90;;
69244;SDS011;56357;52.304;4.870;2024-02-21T02:13:15;8.30;;;1.50;;
69244;SDS011;56357;52.304;4.870;2024-02-21T02:18:13;6.28;;;1.10;;
69244;SDS011;56357;52.304;4.870;2024-02-21T02:20:40;6.57;;;0.73;;
69244;SDS011;56357;52.304;4.870;2024-02-21T02:23:07;5.63;;;0.65;;
69244;SDS011;56357;52.304;4.870;2024-02-21T02:25:38;5.93;;;0.90;;
69244;SDS011;56357;52.304;4.870;2024-02-21T02:28:06;10.47;;;1.23;;
69244;SDS011;56357;52.304;4.870;2024-02-21T02:30:33;7.18;;;1.02;;
69244;SDS011;56357;52.304;4.870;2024-02-21T02:33:01;7.82;;;0.82;;
69244;SDS011;56357;52.304;4.870;2024-02-21T02:35:31;6.05;;;1.10;;
69244;SDS011;56357;52.304;4.870;2024-02-21T02:38:00;7.72;;;1.17;;
69244;SDS011;56357;52.304;4.870;2024-02-21T02:40:26;6.17;;;1.00;;
69244;SDS011;56357;52.304;4.870;2024-02-21T02:42:53;6.80;;;0.77;;
69244;SDS011;56357;52.304;4.870;2024-02-21T02:45:21;8.25;;;0.90;;
69244;SDS011;56357;52.304;4.870;2024-02-21T02:47:49;5.93;;;0.73;;
69244;SDS011;56357;52.304;4.870;2024-02-21T02:50:15;4.47;;;0.63;;
69244;SDS011;56357;52.304;4.870;2024-02-21T02:52:42;7.53;;;0.80;;
69244;SDS011;56357;52.304;4.870;2024-02-21T02:55:08;7.97;;;0.80;;
69244;SDS011;56357;52.304;4.870;2024-02-21T02:57:34;7.75;;;1.13;;
69244;SDS011;56357;52.304;4.870;2024-02-21T03:00:01;6.80;;;1.02;;
69244;SDS011;56357;52.304;4.870;2024-02-21T03:02:27;7.13;;;1.15;;
69244;SDS011;56357;52.304;4.870;2024-02-21T03:04:53;7.20;;;1.03;;
69244;SDS011;56357;52.304;4.870;2024-02-21T03:07:20;9.57;;;1.05;;
69244;SDS011;56357;52.304;4.870;2024-02-21T03:09:46;6.75;;;0.85;;
69244;SDS011;56357;52.304;4.870;2024-02-21T03:12:13;5.07;;;0.93;;
69244;SDS011;56357;52.304;4.870;2024-02-21T03:14:44;5.88;;;0.80;;
69244;SDS011;56357;52.304;4.870;2024-02-21T03:17:10;6.33;;;0.90;;
69244;SDS011;56357;52.304;4.870;2024-02-21T03:19:36;7.45;;;1.13;;
69244;SDS011;56357;52.304;4.870;2024-02-21T03:22:03;7.82;;;1.25;;
69244;SDS011;56357;52.304;4.870;2024-02-21T03:24:31;6.50;;;0.90;;
69244;SDS011;56357;52.304;4.870;2024-02-21T03:26:57;9.13;;;1.40;;
69244;SDS011;56357;52.304;4.870;2024-02-21T03:29:24;5.60;;;1.57;;
69244;SDS011;56357;52.304;4.870;2024-02-21T03:31:51;5.50;;;0.90;;
69244;SDS011;56357;52.304;4.870;2024-02-21T03:34:17;6.63;;;0.98;;
69244;SDS011;56357;52.304;4.870;2024-02-21T03:36:44;7.07;;;0.77;;
69244;SDS011;56357;52.304;4.870;2024-02-21T03:39:10;6.13;;;0.70;;
69244;SDS011;56357;52.304;4.870;2024-02-21T03:41:36;8.47;;;0.70;;
69244;SDS011;56357;52.304;4.870;2024-02-21T03:44:03;7.32;;;1.00;;
69244;SDS011;56357;52.304;4.870;2024-02-21T03:46:30;6.97;;;1.30;;
69244;SDS011;56357;52.304;4.870;2024-02-21T03:48:56;12.50;;;1.92;;
69244;SDS011;56357;52.304;4.870;2024-02-21T03:51:23;6.15;;;1.17;;
69244;SDS011;56357;52.304;4.870;2024-02-21T03:53:49;7.20;;;1.37;;
69244;SDS011;56357;52.304;4.870;2024-02-21T03:56:16;7.43;;;1.00;;
69244;SDS011;56357;52.304;4.870;2024-02-21T03:58:42;6.00;;;0.80;;
69244;SDS011;56357;52.304;4.870;2024-02-21T04:01:09;5.25;;;0.70;;
69244;SDS011;56357;52.304;4.870;2024-02-21T04:03:35;7.88;;;1.40;;
69244;SDS011;56357;52.304;4.870;2024-02-21T04:06:01;6.73;;;0.90;;
69244;SDS011;56357;52.304;4.870;2024-02-21T04:08:28;6.03;;;0.88;;
69244;SDS011;56357;52.304;4.870;2024-02-21T04:10:54;4.75;;;0.98;;
69244;SDS011;56357;52.304;4.870;2024-02-21T04:13:21;6.53;;;0.95;;
69244;SDS011;56357;52.304;4.870;2024-02-21T04:15:47;6.15;;;1.10;;
69244;SDS011;56357;52.304;4.870;2024-02-21T04:18:14;4.90;;;0.80;;
69244;SDS011;56357;52.304;4.870;2024-02-21T04:20:40;6.45;;;1.20;;
69244;SDS011;56357;52.304;4.870;2024-02-21T04:23:07;5.85;;;0.70;;
69244;SDS011;56357;52.304;4.870;2024-02-21T04:25:33;7.05;;;1.23;;
69244;SDS011;56357;52.304;4.870;2024-02-21T04:27:59;6.00;;;0.88;;
69244;SDS011;56357;52.304;4.870;2024-02-21T04:30:26;4.97;;;0.60;;
69244;SDS011;56357;52.304;4.870;2024-02-21T04:32:52;7.15;;;1.20;;
69244;SDS011;56357;52.304;4.870;2024-02-21T04:35:19;5.68;;;1.50;;
69244;SDS011;56357;52.304;4.870;2024-02-21T04:37:45;6.65;;;1.20;;
69244;SDS011;56357;52.304;4.870;2024-02-21T04:40:12;6.82;;;0.88;;
69244;SDS011;56357;52.304;4.870;2024-02-21T04:42:39;5.30;;;0.80;;
69244;SDS011;56357;52.304;4.870;2024-02-21T04:45:05;5.57;;;0.68;;
69244;SDS011;56357;52.304;4.870;2024-02-21T04:47:32;4.90;;;1.10;;
69244;SDS011;56357;52.304;4.870;2024-02-21T04:49:59;4.72;;;0.65;;
69244;SDS011;56357;52.304;4.870;2024-02-21T04:52:25;6.60;;;1.00;;
69244;SDS011;56357;52.304;4.870;2024-02-21T04:54:51;7.10;;;1.20;;
69244;SDS011;56357;52.304;4.870;2024-02-21T04:57:17;5.63;;;1.35;;
69244;SDS011;56357;52.304;4.870;2024-02-21T04:59:44;4.83;;;0.67;;
69244;SDS011;56357;52.304;4.870;2024-02-21T05:02:10;7.32;;;1.05;;
69244;SDS011;56357;52.304;4.870;2024-02-21T05:04:37;5.18;;;0.85;;
69244;SDS011;56357;52.304;4.870;2024-02-21T05:07:05;6.05;;;1.27;;
69244;SDS011;56357;52.304;4.870;2024-02-21T05:09:31;6.40;;;1.10;;
69244;SDS011;56357;52.304;4.870;2024-02-21T05:11:57;7.37;;;1.23;;
69244;SDS011;56357;52.304;4.870;2024-02-21T05:14:25;6.28;;;1.05;;
69244;SDS011;56357;52.304;4.870;2024-02-21T05:16:53;4.65;;;0.73;;
69244;SDS011;56357;52.304;4.870;2024-02-21T05:19:19;8.55;;;1.20;;
69244;SDS011;56357;52.304;4.870;2024-02-21T05:21:46;4.60;;;0.77;;
69244;SDS011;56357;52.304;4.870;2024-02-21T05:24:12;4.77;;;1.07;;
69244;SDS011;56357;52.304;4.870;2024-02-21T05:26:39;7.20;;;1.30;;
69244;SDS011;56357;52.304;4.870;2024-02-21T05:29:05;6.20;;;1.15;;
69244;SDS011;56357;52.304;4.870;2024-02-21T05:34:16;8.13;;;1.45;;
69244;SDS011;56357;52.304;4.870;2024-02-21T05:36:43;5.57;;;1.10;;
69244;SDS011;56357;52.304;4.870;2024-02-21T05:39:11;6.90;;;0.90;;
69244;SDS011;56357;52.304;4.870;2024-02-21T05:41:37;5.93;;;0.88;;
69244;SDS011;56357;52.304;4.870;2024-02-21T05:44:04;4.50;;;0.90;;
69244;SDS011;56357;52.304;4.870;2024-02-21T05:46:30;4.60;;;0.73;;
69244;SDS011;56357;52.304;4.870;2024-02-21T05:48:57;4.50;;;0.90;;
69244;SDS011;56357;52.304;4.870;2024-02-21T05:51:23;5.03;;;0.90;;
69244;SDS011;56357;52.304;4.870;2024-02-21T05:53:49;6.00;;;0.80;;
69244;SDS011;56357;52.304;4.870;2024-02-21T05:56:17;4.95;;;0.80;;
69244;SDS011;56357;52.304;4.870;2024-02-21T05:58:44;3.88;;;0.77;;
69244;SDS011;56357;52.304;4.870;2024-02-21T06:01:12;5.33;;;0.87;;
69244;SDS011;56357;52.304;4.870;2024-02-21T06:03:37;5.03;;;0.70;;
69244;SDS011;56357;52.304;4.870;2024-02-21T06:06:04;4.28;;;0.88;;
69244;SDS011;56357;52.304;4.870;2024-02-21T06:08:31;7.32;;;1.13;;
69244;SDS011;56357;52.304;4.870;2024-02-21T06:10:57;3.97;;;0.88;;
69244;SDS011;56357;52.304;4.870;2024-02-21T06:13:23;7.27;;;1.10;;
69244;SDS011;56357;52.304;4.870;2024-02-21T06:15:50;4.82;;;0.80;;
69244;SDS011;56357;52.304;4.870;2024-02-21T06:18:17;4.15;;;1.20;;
69244;SDS011;56357;52.304;4.870;2024-02-21T06:20:44;5.80;;;1.25;;
69244;SDS011;56357;52.304;4.870;2024-02-21T06:23:11;6.28;;;1.42;;
69244;SDS011;56357;52.304;4.870;2024-02-21T06:25:38;3.93;;;0.90;;
69244;SDS011;56357;52.304;4.870;2024-02-21T06:28:05;4.85;;;1.05;;
69244;SDS011;56357;52.304;4.870;2024-02-21T06:30:32;7.32;;;1.30;;
69244;SDS011;56357;52.304;4.870;2024-02-21T06:32:58;6.53;;;1.13;;
69244;SDS011;56357;52.304;4.870;2024-02-21T06:35:24;5.03;;;1.23;;
69244;SDS011;56357;52.304;4.870;2024-02-21T06:37:51;6.87;;;1.00;;
69244;SDS011;56357;52.304;4.870;2024-02-21T06:40:20;5.00;;;1.10;;
69244;SDS011;56357;52.304;4.870;2024-02-21T06:42:48;8.13;;;1.70;;
69244;SDS011;56357;52.304;4.870;2024-02-21T06:45:14;5.18;;;1.25;;
69244;SDS011;56357;52.304;4.870;2024-02-21T06:47:41;7.13;;;1.65;;
69244;SDS011;56357;52.304;4.870;2024-02-21T06:50:08;8.57;;;1.60;;
69244;SDS011;56357;52.304;4.870;2024-02-21T06:52:36;8.60;;;1.98;;
69244;SDS011;56357;52.304;4.870;2024-02-21T06:55:02;5.28;;;1.50;;
69244;SDS011;56357;52.304;4.870;2024-02-21T06:57:29;5.38;;;1.42;;
69244;SDS011;56357;52.304;4.870;2024-02-21T06:59:56;6.15;;;1.50;;
69244;SDS011;56357;52.304;4.870;2024-02-21T07:02:22;4.80;;;1.33;;
69244;SDS011;56357;52.304;4.870;2024-02-21T07:04:48;5.28;;;1.98;;
69244;SDS011;56357;52.304;4.870;2024-02-21T07:07:15;6.10;;;1.70;;
69244;SDS011;56357;52.304;4.870;2024-02-21T07:09:41;8.07;;;2.10;;
69244;SDS011;56357;52.304;4.870;2024-02-21T07:12:07;5.20;;;2.05;;
69244;SDS011;56357;52.304;4.870;2024-02-21T07:14:35;11.03;;;2.50;;
69244;SDS011;56357;52.304;4.870;2024-02-21T07:17:02;6.30;;;2.47;;
69244;SDS011;56357;52.304;4.870;2024-02-21T07:19:28;6.38;;;1.50;;
69244;SDS011;56357;52.304;4.870;2024-02-21T07:21:55;4.88;;;1.48;;
69244;SDS011;56357;52.304;4.870;2024-02-21T07:24:21;7.13;;;2.30;;
69244;SDS011;56357;52.304;4.870;2024-02-21T07:26:48;6.57;;;2.00;;
69244;SDS011;56357;52.304;4.870;2024-02-21T07:29:14;5.75;;;1.63;;
69244;SDS011;56357;52.304;4.870;2024-02-21T07:31:41;7.43;;;1.42;;
69244;SDS011;56357;52.304;4.870;2024-02-21T07:34:08;7.88;;;1.80;;
69244;SDS011;56357;52.304;4.870;2024-02-21T07:36:34;7.97;;;2.30;;
69244;SDS011;56357;52.304;4.870;2024-02-21T07:39:02;7.33;;;1.57;;
69244;SDS011;56357;52.304;4.870;2024-02-21T07:41:29;9.80;;;2.08;;
69244;SDS011;56357;52.304;4.870;2024-02-21T07:43:56;5.97;;;2.25;;
69244;SDS011;56357;52.304;4.870;2024-02-21T07:46:22;6.05;;;2.22;;
69244;SDS011;56357;52.304;4.870;2024-02-21T07:48:49;5.40;;;2.25;;
69244;SDS011;56357;52.304;4.870;2024-02-21T07:51:16;6.20;;;1.93;;
69244;SDS011;56357;52.304;4.870;2024-02-21T07:53:43;10.18;;;2.22;;
69244;SDS011;56357;52.304;4.870;2024-02-21T07:56:11;8.50;;;2.20;;
69244;SDS011;56357;52.304;4.870;2024-02-21T07:58:38;7.00;;;2.00;;
69244;SDS011;56357;52.304;4.870;2024-02-21T08:01:05;6.18;;;1.70;;
69244;SDS011;56357;52.304;4.870;2024-02-21T08:03:32;9.07;;;1.57;;
69244;SDS011;56357;52.304;4.870;2024-02-21T08:05:58;8.43;;;1.60;;
69244;SDS011;56357;52.304;4.870;2024-02-21T08:08:25;5.70;;;2.00;;
69244;SDS011;56357;52.304;4.870;2024-02-21T08:10:52;5.07;;;1.50;;
69244;SDS011;56357;52.304;4.870;2024-02-21T08:13:19;5.28;;;1.52;;
69244;SDS011;56357;52.304;4.870;2024-02-21T08:15:45;6.03;;;1.60;;
69244;SDS011;56357;52.304;4.870;2024-02-21T08:18:12;6.07;;;1.45;;
69244;SDS011;56357;52.304;4.870;2024-02-21T08:20:38;8.10;;;1.95;;
69244;SDS011;56357;52.304;4.870;2024-02-21T08:23:05;8.18;;;1.80;;
69244;SDS011;56357;52.304;4.870;2024-02-21T08:25:31;4.72;;;1.50;;
69244;SDS011;56357;52.304;4.870;2024-02-21T08:27:58;6.60;;;1.60;;
69244;SDS011;56357;52.304;4.870;2024-02-21T08:30:25;5.03;;;1.70;;
69244;SDS011;56357;52.304;4.870;2024-02-21T08:32:52;7.45;;;1.95;;
69244;SDS011;56357;52.304;4.870;2024-02-21T08:35:19;5.55;;;1.77;;
69244;SDS011;56357;52.304;4.870;2024-02-21T08:37:47;4.68;;;1.77;;
69244;SDS011;56357;52.304;4.870;2024-02-21T08:40:14;8.40;;;1.83;;
69244;SDS011;56357;52.304;4.870;2024-02-21T08:42:42;4.70;;;1.35;;
69244;SDS011;56357;52.304;4.870;2024-02-21T08:45:09;8.35;;;1.70;;
69244;SDS011;56357;52.304;4.870;2024-02-21T08:47:36;5.45;;;1.70;;
69244;SDS011;56357;52.304;4.870;2024-02-21T08:50:05;7.90;;;1.92;;
69244;SDS011;56357;52.304;4.870;2024-02-21T08:52:32;5.93;;;1.67;;
69244;SDS011;56357;52.304;4.870;2024-02-21T08:54:59;6.00;;;1.60;;
69244;SDS011;56357;52.304;4.870;2024-02-21T08:57:25;6.93;;;1.70;;
69244;SDS011;56357;52.304;4.870;2024-02-21T08:59:52;8.35;;;1.73;;
69244;SDS011;56357;52.304;4.870;2024-02-21T09:02:18;5.40;;;1.60;;
69244;SDS011;56357;52.304;4.870;2024-02-21T09:04:44;7.93;;;1.70;;
69244;SDS011;56357;52.304;4.870;2024-02-21T09:07:11;5.38;;;1.80;;
69244;SDS011;56357;52.304;4.870;2024-02-21T09:09:37;5.88;;;2.03;;
69244;SDS011;56357;52.304;4.870;2024-02-21T09:12:05;9.00;;;1.90;;
69244;SDS011;56357;52.304;4.870;2024-02-21T09:14:33;7.18;;;2.05;;
69244;SDS011;56357;52.304;4.870;2024-02-21T09:17:00;6.27;;;2.10;;
69244;SDS011;56357;52.304;4.870;2024-02-21T09:19:26;5.53;;;1.67;;
69244;SDS011;56357;52.304;4.870;2024-02-21T09:21:52;6.70;;;2.28;;
69244;SDS011;56357;52.304;4.870;2024-02-21T09:24:19;6.72;;;2.08;;
69244;SDS011;56357;52.304;4.870;2024-02-21T09:26:45;5.18;;;1.80;;
69244;SDS011;56357;52.304;4.870;2024-02-21T09:29:12;5.70;;;1.77;;
69244;SDS011;56357;52.304;4.870;2024-02-21T09:31:40;7.43;;;2.13;;
69244;SDS011;56357;52.304;4.870;2024-02-21T09:34:07;7.78;;;1.70;;
69244;SDS011;56357;52.304;4.870;2024-02-21T09:36:33;6.55;;;1.50;;
69244;SDS011;56357;52.304;4.870;2024-02-21T09:38:59;5.38;;;1.73;;
69244;SDS011;56357;52.304;4.870;2024-02-21T09:41:26;6.43;;;1.80;;
69244;SDS011;56357;52.304;4.870;2024-02-21T09:43:53;6.20;;;2.22;;
69244;SDS011;56357;52.304;4.870;2024-02-21T09:46:19;7.18;;;2.33;;
69244;SDS011;56357;52.304;4.870;2024-02-21T09:51:53;7.47;;;1.73;;
69244;SDS011;56357;52.304;4.870;2024-02-21T09:54:21;6.45;;;2.10;;
69244;SDS011;56357;52.304;4.870;2024-02-21T09:56:48;5.72;;;1.60;;
69244;SDS011;56357;52.304;4.870;2024-02-21T09:59:15;6.77;;;1.87;;
69244;SDS011;56357;52.304;4.870;2024-02-21T10:01:43;6.60;;;1.95;;
69244;SDS011;56357;52.304;4.870;2024-02-21T10:04:11;6.30;;;2.10;;
69244;SDS011;56357;52.304;4.870;2024-02-21T10:06:38;7.00;;;2.20;;
69244;SDS011;56357;52.304;4.870;2024-02-21T10:09:08;11.48;;;2.10;;
69244;SDS011;56357;52.304;4.870;2024-02-21T10:11:34;6.07;;;2.20;;
69244;SDS011;56357;52.304;4.870;2024-02-21T10:14:04;5.78;;;1.75;;
69244;SDS011;56357;52.304;4.870;2024-02-21T10:16:32;7.32;;;1.80;;
69244;SDS011;56357;52.304;4.870;2024-02-21T10:18:58;6.18;;;1.98;;
69244;SDS011;56357;52.304;4.870;2024-02-21T10:21:25;7.03;;;2.45;;
69244;SDS011;56357;52.304;4.870;2024-02-21T10:23:52;6.53;;;2.17;;
69244;SDS011;56357;52.304;4.870;2024-02-21T10:26:18;7.88;;;2.10;;
69244;SDS011;56357;52.304;4.870;2024-02-21T10:28:49;7.55;;;2.33;;
69244;SDS011;56357;52.304;4.870;2024-02-21T10:31:23;7.13;;;2.40;;
69244;SDS011;56357;52.304;4.870;2024-02-21T10:33:57;8.88;;;2.15;;
69244;SDS011;56357;52.304;4.870;2024-02-21T10:36:25;5.67;;;2.10;;
69244;SDS011;56357;52.304;4.870;2024-02-21T10:38:52;5.30;;;1.98;;
69244;SDS011;56357;52.304;4.870;2024-02-21T10:41:19;6.38;;;2.10;;
69244;SDS011;56357;52.304;4.870;2024-02-21T10:43:49;10.30;;;2.50;;
69244;SDS011;56357;52.304;4.870;2024-02-21T10:46:19;9.18;;;2.30;;
69244;SDS011;56357;52.304;4.870;2024-02-21T10:48:47;7.00;;;1.63;;
69244;SDS011;56357;52.304;4.870;2024-02-21T10:51:14;6.97;;;2.08;;
69244;SDS011;56357;52.304;4.870;2024-02-21T10:58:48;6.13;;;1.83;;
69244;SDS011;56357;52.304;4.870;2024-02-21T11:01:15;6.43;;;2.00;;
69244;SDS011;56357;52.304;4.870;2024-02-21T11:03:43;9.82;;;2.25;;
69244;SDS011;56357;52.304;4.870;2024-02-21T11:06:11;5.10;;;2.03;;
69244;SDS011;56357;52.304;4.870;2024-02-21T11:08:39;5.85;;;1.88;;
69244;SDS011;56357;52.304;4.870;2024-02-21T11:11:06;5.53;;;1.90;;
69244;SDS011;56357;52.304;4.870;2024-02-21T11:13:35;6.83;;;2.00;;
69244;SDS011;56357;52.304;4.870;2024-02-21T11:16:08;4.93;;;1.80;;
69244;SDS011;56357;52.304;4.870;2024-02-21T11:18:47;7.15;;;2.20;;
69244;SDS011;56357;52.304;4.870;2024-02-21T11:21:13;7.38;;;2.00;;
69244;SDS011;56357;52.304;4.870;2024-02-21T11:23:40;6.32;;;1.98;;
69244;SDS011;56357;52.304;4.870;2024-02-21T11:26:09;6.50;;;2.10;;
69244;SDS011;56357;52.304;4.870;2024-02-21T11:28:44;6.50;;;2.28;;
69244;SDS011;56357;52.304;4.870;2024-02-21T11:31:11;5.43;;;2.10;;
69244;SDS011;56357;52.304;4.870;2024-02-21T11:33:42;6.22;;;1.90;;
69244;SDS011;56357;52.304;4.870;2024-02-21T11:36:10;7.55;;;2.53;;
69244;SDS011;56357;52.304;4.870;2024-02-21T11:38:36;7.93;;;1.90;;
69244;SDS011;56357;52.304;4.870;2024-02-21T11:41:03;6.03;;;1.85;;
69244;SDS011;56357;52.304;4.870;2024-02-21T11:43:34;8.38;;;2.33;;
69244;SDS011;56357;52.304;4.870;2024-02-21T11:46:01;7.47;;;2.13;;
69244;SDS011;56357;52.304;4.870;2024-02-21T11:48:28;5.85;;;1.80;;
69244;SDS011;56357;52.304;4.870;2024-02-21T11:50:56;5.73;;;1.80;;
69244;SDS011;56357;52.304;4.870;2024-02-21T11:53:23;9.30;;;2.35;;
69244;SDS011;56357;52.304;4.870;2024-02-21T11:55:52;5.57;;;1.95;;
69244;SDS011;56357;52.304;4.870;2024-02-21T11:58:20;6.13;;;2.25;;
69244;SDS011;56357;52.304;4.870;2024-02-21T12:00:47;6.97;;;2.15;;
69244;SDS011;56357;52.304;4.870;2024-02-21T12:03:13;6.00;;;2.05;;
69244;SDS011;56357;52.304;4.870;2024-02-21T12:05:43;5.85;;;1.80;;
69244;SDS011;56357;52.304;4.870;2024-02-21T12:08:11;6.43;;;1.83;;
69244;SDS011;56357;52.304;4.870;2024-02-21T12:10:38;6.60;;;2.03;;
69244;SDS011;56357;52.304;4.870;2024-02-21T12:13:05;7.10;;;2.28;;
69244;SDS011;56357;52.304;4.870;2024-02-21T12:15:32;7.03;;;1.90;;
69244;SDS011;56357;52.304;4.870;2024-02-21T12:17:58;7.25;;;2.17;;
69244;SDS011;56357;52.304;4.870;2024-02-21T12:20:25;5.30;;;2.20;;
69244;SDS011;56357;52.304;4.870;2024-02-21T12:22:52;8.45;;;2.40;;
69244;SDS011;56357;52.304;4.870;2024-02-21T12:25:21;7.22;;;2.47;;
69244;SDS011;56357;52.304;4.870;2024-02-21T12:27:50;5.57;;;2.10;;
69244;SDS011;56357;52.304;4.870;2024-02-21T12:30:17;6.13;;;2.40;;
69244;SDS011;56357;52.304;4.870;2024-02-21T12:32:47;6.10;;;2.15;;
69244;SDS011;56357;52.304;4.870;2024-02-21T12:35:14;4.53;;;1.90;;
69244;SDS011;56357;52.304;4.870;2024-02-21T12:37:42;7.82;;;2.17;;
69244;SDS011;56357;52.304;4.870;2024-02-21T12:40:08;6.30;;;2.10;;
69244;SDS011;56357;52.304;4.870;2024-02-21T12:42:38;6.95;;;2.10;;
69244;SDS011;56357;52.304;4.870;2024-02-21T12:45:04;5.95;;;2.13;;
69244;SDS011;56357;52.304;4.870;2024-02-21T12:47:31;5.82;;;2.17;;
69244;SDS011;56357;52.304;4.870;2024-02-21T12:49:57;6.82;;;2.00;;
69244;SDS011;56357;52.304;4.870;2024-02-21T12:52:24;6.97;;;2.27;;
69244;SDS011;56357;52.304;4.870;2024-02-21T12:54:50;5.28;;;2.33;;
69244;SDS011;56357;52.304;4.870;2024-02-21T12:57:17;6.13;;;1.92;;
69244;SDS011;56357;52.304;4.870;2024-02-21T12:59:43;5.18;;;1.80;;
69244;SDS011;56357;52.304;4.870;2024-02-21T13:02:09;5.28;;;2.20;;
69244;SDS011;56357;52.304;4.870;2024-02-21T13:04:36;4.60;;;2.13;;
69244;SDS011;56357;52.304;4.870;2024-02-21T13:07:05;5.10;;;1.98;;
69244;SDS011;56357;52.304;4.870;2024-02-21T13:09:32;6.05;;;2.50;;
69244;SDS011;56357;52.304;4.870;2024-02-21T13:11:58;4.75;;;2.30;;
69244;SDS011;56357;52.304;4.870;2024-02-21T13:14:25;5.18;;;2.17;;
69244;SDS011;56357;52.304;4.870;2024-02-21T13:16:51;6.27;;;2.37;;
69244;SDS011;56357;52.304;4.870;2024-02-21T13:19:18;6.18;;;2.22;;
69244;SDS011;56357;52.304;4.870;2024-02-21T13:21:44;6.20;;;2.35;;
69244;SDS011;56357;52.304;4.870;2024-02-21T13:24:10;5.72;;;2.60;;
69244;SDS011;56357;52.304;4.870;2024-02-21T13:26:37;5.80;;;1.80;;
69244;SDS011;56357;52.304;4.870;2024-02-21T13:29:03;5.97;;;1.87;;
69244;SDS011;56357;52.304;4.870;2024-02-21T13:31:29;5.32;;;2.30;;
69244;SDS011;56357;52.304;4.870;2024-02-21T13:33:56;8.10;;;2.55;;
69244;SDS011;56357;52.304;4.870;2024-02-21T13:36:22;6.53;;;2.40;;
69244;SDS011;56357;52.304;4.870;2024-02-21T13:38:49;5.10;;;2.25;;
69244;SDS011;56357;52.304;4.870;2024-02-21T13:41:16;4.63;;;1.93;;
69244;SDS011;56357;52.304;4.870;2024-02-21T13:43:42;6.47;;;2.50;;
69244;SDS011;56357;52.304;4.870;2024-02-21T13:46:11;6.28;;;2.33;;
69244;SDS011;56357;52.304;4.870;2024-02-21T13:48:37;7.18;;;2.40;;
69244;SDS011;56357;52.304;4.870;2024-02-21T13:51:04;9.25;;;2.72;;
69244;SDS011;56357;52.304;4.870;2024-02-21T13:53:30;4.83;;;2.20;;
69244;SDS011;56357;52.304;4.870;2024-02-21T13:55:57;6.70;;;1.92;;
69244;SDS011;56357;52.304;4.870;2024-02-21T13:58:23;5.78;;;2.25;;
69244;SDS011;56357;52.304;4.870;2024-02-21T14:00:50;6.93;;;2.50;;
69244;SDS011;56357;52.304;4.870;2024-02-21T14:03:17;5.70;;;2.40;;
69244;SDS011;56357;52.304;4.870;2024-02-21T14:05:45;8.53;;;2.30;;
69244;SDS011;56357;52.304;4.870;2024-02-21T14:08:13;5.65;;;2.30;;
69244;SDS011;56357;52.304;4.870;2024-02-21T14:10:39;4.75;;;1.90;;
69244;SDS011;56357;52.304;4.870;2024-02-21T14:13:06;6.28;;;2.47;;
69244;SDS011;56357;52.304;4.870;2024-02-21T14:15:32;6.10;;;2.22;;
69244;SDS011;56357;52.304;4.870;2024-02-21T14:17:58;7.43;;;1.90;;
69244;SDS011;56357;52.304;4.870;2024-02-21T14:20:25;5.03;;;1.90;;
69244;SDS011;56357;52.304;4.870;2024-02-21T14:22:51;7.32;;;2.13;;
69244;SDS011;56357;52.304;4.870;2024-02-21T14:25:18;4.60;;;2.05;;
69244;SDS011;56357;52.304;4.870;2024-02-21T14:27:44;5.88;;;1.95;;
69244;SDS011;56357;52.304;4.870;2024-02-21T14:30:10;5.20;;;1.87;;
69244;SDS011;56357;52.304;4.870;2024-02-21T14:32:38;5.32;;;2.05;;
69244;SDS011;56357;52.304;4.870;2024-02-21T14:35:09;5.05;;;1.90;;
69244;SDS011;56357;52.304;4.870;2024-02-21T14:37:35;5.80;;;1.58;;
69244;SDS011;56357;52.304;4.870;2024-02-21T14:40:05;9.15;;;2.10;;
69244;SDS011;56357;52.304;4.870;2024-02-21T14:42:32;6.33;;;1.70;;
69244;SDS011;56357;52.304;4.870;2024-02-21T14:44:59;6.03;;;2.00;;
69244;SDS011;56357;52.304;4.870;2024-02-21T14:47:30;7.18;;;2.03;;
69244;SDS011;56357;52.304;4.870;2024-02-21T14:49:57;6.63;;;2.03;;
69244;SDS011;56357;52.304;4.870;2024-02-21T14:52:23;6.10;;;1.80;;
69244;SDS011;56357;52.304;4.870;2024-02-21T14:54:52;6.57;;;1.70;;
69244;SDS011;56357;52.304;4.870;2024-02-21T14:57:19;5.38;;;1.67;;
69244;SDS011;56357;52.304;4.870;2024-02-21T14:59:46;7.68;;;1.60;;